Home > Products > Valid Products > TAF

000
FTUS43 KMQT 282000 AAA
TAFSAW
TAF AMD
KSAW 282038Z 2821/2918 19006KT P6SM -SHSN OVC045
     FM290000 17004KT 6SM -SHSN OVC020
     FM290200 13003KT 4SM -SHSN OVC010
     FM290700 19003KT 5SM -SHSN BR OVC008
     FM291200 18007KT 5SM -FZDZ OVC008
      AMD LTD TO CLD VIS AND WIND 2903/2911=



000
FTUS43 KMQT 281700
TAFSAW
TAF
KSAW 281738Z 2818/2918 21006KT P6SM -SHSN OVC045
     FM282000 19006KT P6SM -SHSN OVC025
     FM290000 17004KT 6SM -SHSN OVC020
     FM290200 13003KT 4SM -SHSN OVC010
     FM290700 19003KT 5SM -SHSN BR OVC008
     FM291200 18007KT 5SM -FZDZ OVC008
      AMD LTD TO CLD VIS AND WIND 2903/2911=



000
FTUS43 KMQT 281700
TAFCMX
TAF
KCMX 281738Z 2818/2918 20004KT P6SM OVC090
     FM282100 16005KT P6SM OVC025
     FM282300 15005KT P6SM OVC020
     FM290200 16005KT 5SM -SHSN OVC020
     FM290700 16005KT P6SM OVC025
     FM291100 16005KT 6SM -FZDZ BR OVC020=



000
FTUS43 KMQT 281100
TAFSAW
TAF
KSAW 281136Z 2812/2912 21004KT P6SM OVC100
     FM281500 20008KT P6SM OVC050
     FM281700 20008KT P6SM -SN OVC045
     FM281900 20007KT 6SM -SN OVC030
     FM282200 16004KT 5SM -SN OVC015
     FM290800 00000KT 4SM -SN BR OVC008
      AMD LTD TO CLD VIS AND WIND 2903/2911=



000
FTUS43 KMQT 281100
TAFCMX
TAF
KCMX 281136Z 2812/2912 22005KT P6SM OVC100
     FM281600 19005KT P6SM -SN OVC050
     FM281900 17004KT 6SM -SN OVC030
     FM282300 14006KT 6SM -SN OVC020
      TEMPO 2900/2904 4SM -SN OVC015
     FM290800 16006KT P6SM OVC020=



000
FTUS43 KMQT 280500
TAFSAW
TAF
KSAW 280520Z 2806/2906 26005KT P6SM BKN200
     FM281000 19003KT P6SM BKN120
     FM281900 20007KT 6SM -SN OVC030
     FM282100 18007KT 5SM -SN OVC015
     FM290400 16003KT P6SM OVC010
      AMD LTD TO CLD VIS AND WIND TIL 281100=



000
FTUS43 KMQT 280500
TAFCMX
TAF
KCMX 280520Z 2806/2906 20006KT 6SM -SHSN SCT015 OVC030
     FM280800 20005KT P6SM SCT035 BKN150
     FM281500 19005KT P6SM BKN060
     FM282000 13006KT 6SM -SN SCT025 OVC035
     FM282300 12004KT P6SM OVC035=



000
FTUS43 KMQT 272300
TAFCMX
TAF
KCMX 272338Z 2800/2824 29006KT 4SM -SHSN SCT015 OVC025
      TEMPO 2800/2804 2SM -SHSN
     FM280600 23006KT P6SM VCSH BKN020
     FM280800 21006KT P6SM SCT035 BKN100
     FM281600 18007KT 6SM -SN SCT025 OVC040=



000
FTUS43 KMQT 272300
TAFSAW
TAF
KSAW 272338Z 2800/2824 29003KT P6SM SKC
     FM280500 22003KT P6SM BKN120
     FM281700 20007KT P6SM -SN OVC035
     FM281900 18007KT 6SM -SN OVC020
      AMD LTD TO CLD VIS AND WIND 2803/2811=



000
FTUS43 KMQT 272200 AAB
TAFCMX
TAF AMD
KCMX 272248Z 2723/2818 29006KT 4SM -SHSN SCT015 OVC025
      TEMPO 2723/2803 2SM -SHSN
     FM280600 23006KT P6SM VCSH BKN020
     FM280900 22006KT P6SM BKN035
     FM281600 18007KT 6SM -SN OVC030=



000
FTUS43 KMQT 272000 AAA
TAFCMX
TAF AMD
KCMX 272044Z 2721/2818 29012KT 3SM -SHSN BKN020
     FM272300 28007KT P6SM VCSH BKN020
     FM280600 23006KT P6SM VCSH BKN020
     FM280900 22006KT P6SM BKN035
     FM281600 18007KT 6SM -SN OVC030=



000
FTUS43 KMQT 271700
TAFSAW
TAF
KSAW 271734Z 2718/2818 33015G20KT P6SM SCT030
     FM271900 32012G18KT P6SM BKN030
     FM272200 32007KT P6SM SCT030
     FM280500 25004KT P6SM SCT100
     FM281500 20008KT P6SM -SN OVC035
     FM281700 19009KT 6SM -SN OVC020
      AMD LTD TO CLD VIS AND WIND 2803/2811=



000
FTUS43 KMQT 271700
TAFCMX
TAF
KCMX 271734Z 2718/2818 35009KT 6SM -SHSN BKN021
     FM272300 30007KT P6SM VCSH BKN021
     FM280600 23006KT P6SM VCSH BKN020
     FM280900 22006KT P6SM BKN035
     FM281600 18007KT 6SM -SN OVC030=



000
FTUS43 KMQT 271500 AAA
TAFCMX
TAF AMD
KCMX 271525Z 2715/2812 35008KT 6SM -SHSN OVC025
      TEMPO 2715/2718 1SM -SHSN OVC015
     FM271800 31009KT P6SM -SHSN BKN030
     FM280000 27006KT 5SM -SHSN OVC025
     FM280400 23004KT P6SM SCT030 BKN200=



000
FTUS43 KMQT 271100
TAFCMX
TAF
KCMX 271137Z 2712/2812 35008KT 6SM -SHSN OVC025
      TEMPO 2712/2714 2SM -SHSN OVC015
     FM271800 31009KT P6SM -SHSN BKN030
     FM280000 27006KT 5SM -SHSN OVC025
     FM280400 23004KT P6SM SCT030 BKN200=



000
FTUS43 KMQT 271100
TAFSAW
TAF
KSAW 271137Z 2712/2812 32009KT P6SM SCT060
     FM271500 33012G17KT P6SM BKN035
     FM272300 27003KT P6SM SCT250
     FM280700 20003KT P6SM BKN100
      AMD LTD TO CLD VIS AND WIND 2803/2811=



000
FTUS43 KMQT 270800 AAA
TAFSAW
TAF AMD
KSAW 270837Z 2709/2806 34012KT P6SM -SHSN BKN035
      TEMPO 2709/2712 4SM -SHSN OVC025
     FM271200 33010KT P6SM -SHSN BKN035
     FM272100 32008KT P6SM BKN035
     FM280000 27003KT P6SM SCT250
      AMD LTD TO CLD VIS AND WIND TIL 271100=



000
FTUS43 KMQT 270500
TAFSAW
TAF
KSAW 270538Z 2706/2806 36014KT 2SM -SHSN OVC015
      TEMPO 2706/2709 1SM -SHSN OVC006
     FM270900 34012KT 4SM -SHSN OVC020
     FM271200 33010KT P6SM -SHSN BKN025
     FM272100 32008KT P6SM BKN035
     FM280000 27003KT P6SM SCT250
      AMD LTD TO CLD VIS AND WIND TIL 271100=



000
FTUS43 KMQT 270500
TAFCMX
TAF
KCMX 270538Z 2706/2806 36010KT 2SM -SHSN OVC015
      TEMPO 2706/2707 1SM -SHSN
     FM270700 35010KT 3SM -SHSN OVC020
     FM271800 31009KT P6SM -SHSN BKN030
     FM280000 27006KT 5SM -SHSN OVC025=



000
FTUS43 KMQT 270300 AAA
TAFCMX
TAF AMD
KCMX 270326Z 2703/2724 36010G20KT 1 1/2SM -SN OVC015
     FM270500 36010KT 3SM -SHSN OVC015
     FM270700 35010KT 5SM -SHSN OVC030
     FM271800 31009KT P6SM -SHSN BKN030=



000
FTUS43 KMQT 262300
TAFSAW
TAF
KSAW 262325Z 2700/2724 28003KT P6SM -SHSN BKN035
     FM270300 36012G22KT 1SM -SHSN BLSN OVC010
      TEMPO 2703/2706 3/4SM -SHSN BLSN OVC007
     FM271000 34010G20KT 3SM -SHSN OVC015
     FM271300 34010KT P6SM -SHSN BKN025
     FM272100 33008KT P6SM BKN035
      AMD LTD TO CLD VIS AND WIND 2703/2711=



000
FTUS43 KMQT 262300
TAFCMX
TAF
KCMX 262325Z 2700/2724 01010G20KT 3SM -SN OVC030
      TEMPO 2700/2703 2SM -SN OVC010
     FM270700 35010KT 5SM -SHSN OVC030
     FM271800 31009KT P6SM -SHSN BKN030=



000
FTUS43 KMQT 262100 AAA
TAFCMX
TAF AMD
KCMX 262159Z 2622/2718 01012G19KT 3SM -SN OVC010
      TEMPO 2622/2701 1SM -SN BLSN
     FM270100 35012G17KT 2SM -SHSN OVC015
     FM270700 35011KT 3SM -SHSN OVC015=



000
FTUS43 KMQT 262100 AAA
TAFCMX
TAF AMD
KCMX 262159Z 2622/2718 01012G19KT 3SM -SN OVC010
      TEMPO 2622/2701 1SM -SN BLSN
     FM270100 35012G17KT 2SM -SHSN OVC015
     FM270700 35011KT 3SM -SHSN OVC015=



000
FTUS43 KMQT 261700
TAFCMX
TAF
KCMX 261738Z 2618/2718 VRB03KT 2SM -SN SCT015 OVC022
      TEMPO 2618/2619 1SM -SN BKN015
     FM262000 01010KT 1SM -SN OVC010
      TEMPO 2620/2624 3/4SM -SN
     FM270100 35012G17KT 2SM -SHSN OVC015
     FM270700 35011KT 3SM -SHSN OVC015=



000
FTUS43 KMQT 261700
TAFSAW
TAF
KSAW 261738Z 2618/2718 VRB03KT P6SM BKN060
     FM262300 VRB03KT P6SM -SHSN BKN040
     FM270300 35014G22KT 1SM -SHSN BLSN OVC010
      TEMPO 2703/2706 3/4SM -SHSN BLSN OVC007
     FM271000 34014G19KT 3SM -SHSN OVC015
     FM271300 34013KT P6SM -SHSN BKN025
      AMD LTD TO CLD VIS AND WIND 2703/2711=



000
FTUS43 KMQT 261700 AAA
TAFCMX
TAF AMD
KCMX 261701Z 2617/2712 VRB03KT 3SM -SN OVC020
      TEMPO 2617/2619 1 1/2SM -SN OVC015
     FM261900 01014KT 2SM -SN OVC010
     FM262100 03014KT 1SM -SHSN OVC010
     FM270100 35010KT 2SM -SHSN BKN015=



000
FTUS43 KMQT 261100
TAFCMX
TAF
KCMX 261139Z 2612/2712 VRB03KT P6SM BKN035
     FM261400 VRB03KT P6SM OVC020
     FM261900 01014KT 2SM -SN OVC010
     FM262100 03014KT 1SM -SHSN OVC010
     FM270100 35010KT 2SM -SHSN BKN015=



000
FTUS43 KMQT 261100
TAFSAW
TAF
KSAW 261139Z 2612/2712 00000KT P6SM BKN120
     FM261400 VRB03KT P6SM BKN080
     FM262300 VRB03KT P6SM -SHSN OVC020
     FM270200 36010KT 2SM -SN OVC010
     FM270500 35014G22KT 1SM -SHSN BLSN OVC010
      AMD LTD TO CLD VIS AND WIND 2703/2711=



000
FTUS43 KMQT 260700 AAA
TAFCMX
TAF AMD
KCMX 260736Z 2608/2706 20003KT P6SM BKN040
     FM261400 VRB03KT P6SM OVC020
     FM261900 01014KT 3SM -SN OVC010=



000
FTUS43 KMQT 260500
TAFSAW
TAF
KSAW 260539Z 2606/2706 00000KT P6SM SKC
     FM261200 00000KT P6SM BKN040
     FM262300 VRB03KT P6SM OVC020
     FM270100 36010KT 2SM -SN OVC010
      AMD LTD TO CLD VIS AND WIND TIL 261100=



000
FTUS43 KMQT 260500
TAFCMX
TAF
KCMX 260539Z 2606/2706 20005KT P6SM BKN025
     FM260900 20003KT P6SM BKN040
     FM261400 VRB03KT P6SM OVC020
     FM261900 01014KT 3SM -SN OVC010=



000
FTUS43 KMQT 260000 AAA
TAFCMX
TAF AMD
KCMX 260054Z 2601/2624 24003KT P6SM -SHSN OVC025
     FM260400 24005KT P6SM BKN025
     FM260900 VRB03KT P6SM BKN025
     FM261400 VRB03KT 3SM -SHSN OVC020
     FM262000 02012KT 3SM -SHSN OVC010=



000
FTUS43 KMQT 252300
TAFCMX
TAF
KCMX 252320Z 2600/2624 24003KT P6SM -SHSN OVC025
      TEMPO 2600/2604 3SM -SHSN
     FM260400 24005KT P6SM BKN025
     FM260900 VRB03KT P6SM BKN025
     FM261400 VRB03KT 3SM -SHSN OVC020
     FM262000 02012KT 3SM -SHSN OVC010=



000
FTUS43 KMQT 252300
TAFSAW
TAF
KSAW 252320Z 2600/2624 00000KT P6SM SKC
     FM260100 00000KT P6SM SCT250
     FM261300 00000KT P6SM BKN060
     FM262100 VRB03KT P6SM OVC035
      AMD LTD TO CLD VIS AND WIND 2603/2611=



    US Dept of Commerce
    National Oceanic and Atmospheric Administration
    National Weather Service
    1325 East West Highway
    Silver Spring, MD 20910
    Page Author: NWS Internet Services Team
Disclaimer
Information Quality
Credits
Glossary
Privacy Policy
Freedom of Information Act (FOIA)
About Us
Career Opportunities